sensor_id;sensor_type;location;lat;lon;timestamp;P1;durP1;ratioP1;P2;durP2;ratioP2
81651;SDS011;71061;55.714;37.794;2024-02-04T00:01:40;18.50;;;8.27;;
81651;SDS011;71061;55.714;37.794;2024-02-04T00:04:06;18.05;;;6.97;;
81651;SDS011;71061;55.714;37.794;2024-02-04T00:06:32;22.98;;;8.15;;
81651;SDS011;71061;55.714;37.794;2024-02-04T00:08:58;20.70;;;7.80;;
81651;SDS011;71061;55.714;37.794;2024-02-04T00:11:23;17.30;;;7.78;;
81651;SDS011;71061;55.714;37.794;2024-02-04T00:13:49;17.15;;;7.72;;
81651;SDS011;71061;55.714;37.794;2024-02-04T00:16:15;21.60;;;7.68;;
81651;SDS011;71061;55.714;37.794;2024-02-04T00:18:41;21.20;;;8.85;;
81651;SDS011;71061;55.714;37.794;2024-02-04T00:21:06;17.85;;;7.60;;
81651;SDS011;71061;55.714;37.794;2024-02-04T00:23:32;14.80;;;7.60;;
81651;SDS011;71061;55.714;37.794;2024-02-04T00:25:58;20.55;;;8.68;;
81651;SDS011;71061;55.714;37.794;2024-02-04T00:28:24;16.48;;;7.22;;
81651;SDS011;71061;55.714;37.794;2024-02-04T00:30:51;18.17;;;7.72;;
81651;SDS011;71061;55.714;37.794;2024-02-04T00:33:20;17.25;;;8.07;;
81651;SDS011;71061;55.714;37.794;2024-02-04T00:35:47;16.13;;;7.35;;
81651;SDS011;71061;55.714;37.794;2024-02-04T00:38:12;17.70;;;7.22;;
81651;SDS011;71061;55.714;37.794;2024-02-04T00:40:38;14.52;;;7.47;;
81651;SDS011;71061;55.714;37.794;2024-02-04T00:43:04;13.85;;;6.97;;
81651;SDS011;71061;55.714;37.794;2024-02-04T00:45:29;15.35;;;7.03;;
81651;SDS011;71061;55.714;37.794;2024-02-04T00:47:55;16.05;;;7.40;;
81651;SDS011;71061;55.714;37.794;2024-02-04T00:50:21;14.95;;;6.88;;
81651;SDS011;71061;55.714;37.794;2024-02-04T00:52:47;16.38;;;7.32;;
81651;SDS011;71061;55.714;37.794;2024-02-04T00:55:13;13.68;;;6.47;;
81651;SDS011;71061;55.714;37.794;2024-02-04T00:57:39;12.82;;;5.97;;
81651;SDS011;71061;55.714;37.794;2024-02-04T01:00:05;16.60;;;6.63;;
81651;SDS011;71061;55.714;37.794;2024-02-04T01:02:33;13.73;;;6.15;;
81651;SDS011;71061;55.714;37.794;2024-02-04T01:04:59;11.85;;;6.10;;
81651;SDS011;71061;55.714;37.794;2024-02-04T01:07:25;13.48;;;5.88;;
81651;SDS011;71061;55.714;37.794;2024-02-04T01:09:51;12.80;;;6.20;;
81651;SDS011;71061;55.714;37.794;2024-02-04T01:12:16;14.15;;;6.00;;
81651;SDS011;71061;55.714;37.794;2024-02-04T01:14:42;12.90;;;6.28;;
81651;SDS011;71061;55.714;37.794;2024-02-04T01:17:08;14.63;;;5.65;;
81651;SDS011;71061;55.714;37.794;2024-02-04T01:19:34;14.07;;;6.03;;
81651;SDS011;71061;55.714;37.794;2024-02-04T01:22:00;13.73;;;5.10;;
81651;SDS011;71061;55.714;37.794;2024-02-04T01:24:26;12.43;;;5.60;;
81651;SDS011;71061;55.714;37.794;2024-02-04T01:26:52;13.35;;;4.88;;
81651;SDS011;71061;55.714;37.794;2024-02-04T01:29:18;9.68;;;4.28;;
81651;SDS011;71061;55.714;37.794;2024-02-04T01:31:44;10.18;;;5.65;;
81651;SDS011;71061;55.714;37.794;2024-02-04T01:34:10;9.90;;;4.72;;
81651;SDS011;71061;55.714;37.794;2024-02-04T01:36:35;10.45;;;4.13;;
81651;SDS011;71061;55.714;37.794;2024-02-04T01:39:01;10.82;;;4.35;;
81651;SDS011;71061;55.714;37.794;2024-02-04T01:41:27;9.93;;;4.75;;
81651;SDS011;71061;55.714;37.794;2024-02-04T01:43:53;7.35;;;3.25;;
81651;SDS011;71061;55.714;37.794;2024-02-04T01:46:20;9.63;;;3.58;;
81651;SDS011;71061;55.714;37.794;2024-02-04T01:48:46;7.53;;;3.53;;
81651;SDS011;71061;55.714;37.794;2024-02-04T01:51:13;8.82;;;3.85;;
81651;SDS011;71061;55.714;37.794;2024-02-04T01:53:39;8.38;;;3.80;;
81651;SDS011;71061;55.714;37.794;2024-02-04T01:56:07;6.93;;;3.15;;
81651;SDS011;71061;55.714;37.794;2024-02-04T01:58:34;8.02;;;3.63;;
81651;SDS011;71061;55.714;37.794;2024-02-04T02:01:00;7.60;;;3.38;;
81651;SDS011;71061;55.714;37.794;2024-02-04T02:03:26;6.63;;;3.13;;
81651;SDS011;71061;55.714;37.794;2024-02-04T02:05:52;6.57;;;2.70;;
81651;SDS011;71061;55.714;37.794;2024-02-04T02:08:18;8.80;;;3.13;;
81651;SDS011;71061;55.714;37.794;2024-02-04T02:10:44;6.82;;;2.70;;
81651;SDS011;71061;55.714;37.794;2024-02-04T02:13:22;6.68;;;2.83;;
81651;SDS011;71061;55.714;37.794;2024-02-04T02:15:51;7.93;;;3.33;;
81651;SDS011;71061;55.714;37.794;2024-02-04T02:21:16;7.30;;;3.22;;
81651;SDS011;71061;55.714;37.794;2024-02-04T02:26:33;7.45;;;4.82;;
81651;SDS011;71061;55.714;37.794;2024-02-04T02:29:04;7.50;;;3.97;;
81651;SDS011;71061;55.714;37.794;2024-02-04T02:31:31;7.05;;;4.03;;
81651;SDS011;71061;55.714;37.794;2024-02-04T02:33:57;6.10;;;3.60;;
81651;SDS011;71061;55.714;37.794;2024-02-04T02:36:23;6.38;;;3.72;;
81651;SDS011;71061;55.714;37.794;2024-02-04T02:38:59;7.43;;;4.18;;
81651;SDS011;71061;55.714;37.794;2024-02-04T02:41:35;7.10;;;3.53;;
81651;SDS011;71061;55.714;37.794;2024-02-04T02:44:01;6.15;;;3.75;;
81651;SDS011;71061;55.714;37.794;2024-02-04T02:46:28;7.75;;;4.85;;
81651;SDS011;71061;55.714;37.794;2024-02-04T02:48:54;6.30;;;3.67;;
81651;SDS011;71061;55.714;37.794;2024-02-04T02:51:20;7.53;;;3.58;;
81651;SDS011;71061;55.714;37.794;2024-02-04T02:53:46;5.90;;;3.80;;
81651;SDS011;71061;55.714;37.794;2024-02-04T02:56:11;6.38;;;3.20;;
81651;SDS011;71061;55.714;37.794;2024-02-04T02:58:37;5.40;;;3.08;;
81651;SDS011;71061;55.714;37.794;2024-02-04T03:01:03;6.80;;;3.58;;
81651;SDS011;71061;55.714;37.794;2024-02-04T03:03:29;6.68;;;3.50;;
81651;SDS011;71061;55.714;37.794;2024-02-04T03:05:55;7.20;;;2.88;;
81651;SDS011;71061;55.714;37.794;2024-02-04T03:08:20;5.20;;;3.08;;
81651;SDS011;71061;55.714;37.794;2024-02-04T03:10:46;6.22;;;3.15;;
81651;SDS011;71061;55.714;37.794;2024-02-04T03:13:12;4.70;;;2.63;;
81651;SDS011;71061;55.714;37.794;2024-02-04T03:15:38;5.97;;;2.75;;
81651;SDS011;71061;55.714;37.794;2024-02-04T03:18:06;6.35;;;2.75;;
81651;SDS011;71061;55.714;37.794;2024-02-04T03:20:32;5.90;;;2.38;;
81651;SDS011;71061;55.714;37.794;2024-02-04T03:22:58;7.43;;;3.00;;
81651;SDS011;71061;55.714;37.794;2024-02-04T03:25:24;5.43;;;3.25;;
81651;SDS011;71061;55.714;37.794;2024-02-04T03:27:52;5.72;;;2.15;;
81651;SDS011;71061;55.714;37.794;2024-02-04T03:30:18;5.07;;;2.13;;
81651;SDS011;71061;55.714;37.794;2024-02-04T03:32:44;4.70;;;1.88;;
81651;SDS011;71061;55.714;37.794;2024-02-04T03:35:10;4.50;;;2.53;;
81651;SDS011;71061;55.714;37.794;2024-02-04T03:37:35;5.35;;;2.65;;
81651;SDS011;71061;55.714;37.794;2024-02-04T03:40:01;4.03;;;2.00;;
81651;SDS011;71061;55.714;37.794;2024-02-04T03:42:29;4.07;;;2.35;;
81651;SDS011;71061;55.714;37.794;2024-02-04T03:44:55;4.07;;;1.80;;
81651;SDS011;71061;55.714;37.794;2024-02-04T03:47:21;3.97;;;2.22;;
81651;SDS011;71061;55.714;37.794;2024-02-04T03:49:47;3.50;;;1.58;;
81651;SDS011;71061;55.714;37.794;2024-02-04T03:52:13;4.30;;;2.22;;
81651;SDS011;71061;55.714;37.794;2024-02-04T03:54:38;3.55;;;1.70;;
81651;SDS011;71061;55.714;37.794;2024-02-04T03:57:04;5.25;;;1.48;;
81651;SDS011;71061;55.714;37.794;2024-02-04T03:59:32;3.72;;;1.40;;
81651;SDS011;71061;55.714;37.794;2024-02-04T04:01:58;4.07;;;1.42;;
81651;SDS011;71061;55.714;37.794;2024-02-04T04:04:23;3.45;;;1.33;;
81651;SDS011;71061;55.714;37.794;2024-02-04T04:06:49;4.70;;;1.63;;
81651;SDS011;71061;55.714;37.794;2024-02-04T04:09:15;3.75;;;1.05;;
81651;SDS011;71061;55.714;37.794;2024-02-04T04:11:40;4.32;;;2.78;;
81651;SDS011;71061;55.714;37.794;2024-02-04T04:14:06;5.40;;;1.45;;
81651;SDS011;71061;55.714;37.794;2024-02-04T04:16:32;4.25;;;1.20;;
81651;SDS011;71061;55.714;37.794;2024-02-04T04:18:57;2.90;;;1.50;;
81651;SDS011;71061;55.714;37.794;2024-02-04T04:21:24;2.78;;;1.52;;
81651;SDS011;71061;55.714;37.794;2024-02-04T04:23:50;2.80;;;1.45;;
81651;SDS011;71061;55.714;37.794;2024-02-04T04:26:16;4.05;;;1.02;;
81651;SDS011;71061;55.714;37.794;2024-02-04T04:28:41;2.72;;;1.42;;
81651;SDS011;71061;55.714;37.794;2024-02-04T04:31:08;2.35;;;1.17;;
81651;SDS011;71061;55.714;37.794;2024-02-04T04:33:35;4.03;;;1.33;;
81651;SDS011;71061;55.714;37.794;2024-02-04T04:36:01;2.88;;;1.13;;
81651;SDS011;71061;55.714;37.794;2024-02-04T04:38:27;3.97;;;2.35;;
81651;SDS011;71061;55.714;37.794;2024-02-04T04:40:52;2.78;;;1.42;;
81651;SDS011;71061;55.714;37.794;2024-02-04T04:43:18;2.60;;;1.25;;
81651;SDS011;71061;55.714;37.794;2024-02-04T04:45:44;2.58;;;1.60;;
81651;SDS011;71061;55.714;37.794;2024-02-04T04:48:10;2.55;;;1.05;;
81651;SDS011;71061;55.714;37.794;2024-02-04T04:50:36;2.42;;;1.10;;
81651;SDS011;71061;55.714;37.794;2024-02-04T04:53:02;2.63;;;1.02;;
81651;SDS011;71061;55.714;37.794;2024-02-04T04:55:28;4.90;;;1.38;;
81651;SDS011;71061;55.714;37.794;2024-02-04T04:57:53;2.95;;;1.58;;
81651;SDS011;71061;55.714;37.794;2024-02-04T05:00:19;4.03;;;1.63;;
81651;SDS011;71061;55.714;37.794;2024-02-04T05:02:45;3.10;;;1.27;;
81651;SDS011;71061;55.714;37.794;2024-02-04T05:05:11;8.63;;;1.80;;
81651;SDS011;71061;55.714;37.794;2024-02-04T05:07:37;2.53;;;0.60;;
81651;SDS011;71061;55.714;37.794;2024-02-04T05:10:03;2.58;;;2.15;;
81651;SDS011;71061;55.714;37.794;2024-02-04T05:12:30;3.63;;;1.27;;
81651;SDS011;71061;55.714;37.794;2024-02-04T05:14:56;1.65;;;0.57;;
81651;SDS011;71061;55.714;37.794;2024-02-04T05:17:21;3.90;;;1.48;;
81651;SDS011;71061;55.714;37.794;2024-02-04T05:19:47;2.40;;;1.20;;
81651;SDS011;71061;55.714;37.794;2024-02-04T05:22:13;3.92;;;1.13;;
81651;SDS011;71061;55.714;37.794;2024-02-04T05:24:39;2.85;;;0.70;;
81651;SDS011;71061;55.714;37.794;2024-02-04T05:27:06;2.30;;;1.15;;
81651;SDS011;71061;55.714;37.794;2024-02-04T05:29:32;3.33;;;0.93;;
81651;SDS011;71061;55.714;37.794;2024-02-04T05:31:57;2.63;;;1.60;;
81651;SDS011;71061;55.714;37.794;2024-02-04T05:34:23;2.15;;;0.70;;
81651;SDS011;71061;55.714;37.794;2024-02-04T05:36:49;2.30;;;1.17;;
81651;SDS011;71061;55.714;37.794;2024-02-04T05:39:15;2.30;;;0.60;;
81651;SDS011;71061;55.714;37.794;2024-02-04T05:41:41;2.63;;;1.08;;
81651;SDS011;71061;55.714;37.794;2024-02-04T05:44:07;4.10;;;1.17;;
81651;SDS011;71061;55.714;37.794;2024-02-04T05:46:34;1.90;;;0.85;;
81651;SDS011;71061;55.714;37.794;2024-02-04T05:49:01;2.22;;;0.85;;
81651;SDS011;71061;55.714;37.794;2024-02-04T05:51:27;2.83;;;0.90;;
81651;SDS011;71061;55.714;37.794;2024-02-04T05:53:53;2.20;;;1.15;;
81651;SDS011;71061;55.714;37.794;2024-02-04T05:56:18;2.13;;;0.73;;
81651;SDS011;71061;55.714;37.794;2024-02-04T05:58:45;2.92;;;1.15;;
81651;SDS011;71061;55.714;37.794;2024-02-04T06:01:12;5.07;;;1.30;;
81651;SDS011;71061;55.714;37.794;2024-02-04T06:03:37;2.47;;;0.95;;
81651;SDS011;71061;55.714;37.794;2024-02-04T06:06:03;1.85;;;0.88;;
81651;SDS011;71061;55.714;37.794;2024-02-04T06:08:29;3.40;;;0.85;;
81651;SDS011;71061;55.714;37.794;2024-02-04T06:10:55;3.28;;;0.85;;
81651;SDS011;71061;55.714;37.794;2024-02-04T06:13:21;2.72;;;0.82;;
81651;SDS011;71061;55.714;37.794;2024-02-04T06:15:46;5.22;;;1.30;;
81651;SDS011;71061;55.714;37.794;2024-02-04T06:18:12;2.63;;;0.88;;
81651;SDS011;71061;55.714;37.794;2024-02-04T06:20:38;2.13;;;0.75;;
81651;SDS011;71061;55.714;37.794;2024-02-04T06:23:03;2.22;;;0.88;;
81651;SDS011;71061;55.714;37.794;2024-02-04T06:25:29;2.60;;;1.33;;
81651;SDS011;71061;55.714;37.794;2024-02-04T06:27:55;4.13;;;1.45;;
81651;SDS011;71061;55.714;37.794;2024-02-04T06:30:21;2.28;;;0.80;;
81651;SDS011;71061;55.714;37.794;2024-02-04T06:32:48;1.77;;;0.60;;
81651;SDS011;71061;55.714;37.794;2024-02-04T06:35:15;1.88;;;0.80;;
81651;SDS011;71061;55.714;37.794;2024-02-04T06:37:41;4.25;;;1.02;;
81651;SDS011;71061;55.714;37.794;2024-02-04T06:40:10;2.13;;;0.35;;
81651;SDS011;71061;55.714;37.794;2024-02-04T06:42:36;7.18;;;2.67;;
81651;SDS011;71061;55.714;37.794;2024-02-04T06:45:01;2.55;;;0.65;;
81651;SDS011;71061;55.714;37.794;2024-02-04T06:47:29;2.03;;;1.15;;
81651;SDS011;71061;55.714;37.794;2024-02-04T06:49:55;1.75;;;1.05;;
81651;SDS011;71061;55.714;37.794;2024-02-04T06:52:20;2.35;;;1.02;;
81651;SDS011;71061;55.714;37.794;2024-02-04T06:54:46;1.65;;;0.82;;
81651;SDS011;71061;55.714;37.794;2024-02-04T06:57:12;2.80;;;0.82;;
81651;SDS011;71061;55.714;37.794;2024-02-04T06:59:38;2.42;;;1.17;;
81651;SDS011;71061;55.714;37.794;2024-02-04T07:02:03;8.50;;;1.48;;
81651;SDS011;71061;55.714;37.794;2024-02-04T07:04:29;3.03;;;0.80;;
81651;SDS011;71061;55.714;37.794;2024-02-04T07:06:55;2.38;;;1.05;;
81651;SDS011;71061;55.714;37.794;2024-02-04T07:09:21;2.75;;;0.57;;
81651;SDS011;71061;55.714;37.794;2024-02-04T07:11:47;2.22;;;0.90;;
81651;SDS011;71061;55.714;37.794;2024-02-04T07:14:12;4.38;;;0.88;;
81651;SDS011;71061;55.714;37.794;2024-02-04T07:16:38;1.85;;;0.85;;
81651;SDS011;71061;55.714;37.794;2024-02-04T07:19:04;1.92;;;1.20;;
81651;SDS011;71061;55.714;37.794;2024-02-04T07:21:30;1.98;;;1.35;;
81651;SDS011;71061;55.714;37.794;2024-02-04T07:23:55;2.67;;;1.85;;
81651;SDS011;71061;55.714;37.794;2024-02-04T07:26:21;2.60;;;1.15;;
81651;SDS011;71061;55.714;37.794;2024-02-04T07:28:47;2.45;;;0.70;;
81651;SDS011;71061;55.714;37.794;2024-02-04T07:31:13;2.28;;;1.20;;
81651;SDS011;71061;55.714;37.794;2024-02-04T07:33:39;2.60;;;1.15;;
81651;SDS011;71061;55.714;37.794;2024-02-04T07:36:05;2.17;;;1.00;;
81651;SDS011;71061;55.714;37.794;2024-02-04T07:38:31;2.30;;;0.70;;
81651;SDS011;71061;55.714;37.794;2024-02-04T07:40:57;1.88;;;0.80;;
81651;SDS011;71061;55.714;37.794;2024-02-04T07:43:24;2.92;;;0.70;;
81651;SDS011;71061;55.714;37.794;2024-02-04T07:45:50;2.30;;;0.63;;
81651;SDS011;71061;55.714;37.794;2024-02-04T07:48:16;6.80;;;1.05;;
81651;SDS011;71061;55.714;37.794;2024-02-04T07:50:43;3.28;;;1.65;;
81651;SDS011;71061;55.714;37.794;2024-02-04T07:53:08;3.15;;;0.32;;
81651;SDS011;71061;55.714;37.794;2024-02-04T07:55:34;4.28;;;1.00;;
81651;SDS011;71061;55.714;37.794;2024-02-04T07:58:00;2.60;;;1.05;;
81651;SDS011;71061;55.714;37.794;2024-02-04T08:00:25;2.80;;;0.30;;
81651;SDS011;71061;55.714;37.794;2024-02-04T08:02:51;2.03;;;0.60;;
81651;SDS011;71061;55.714;37.794;2024-02-04T08:05:17;3.78;;;1.10;;
81651;SDS011;71061;55.714;37.794;2024-02-04T08:07:43;2.28;;;1.42;;
81651;SDS011;71061;55.714;37.794;2024-02-04T08:10:09;2.70;;;1.00;;
81651;SDS011;71061;55.714;37.794;2024-02-04T08:12:34;2.60;;;1.13;;
81651;SDS011;71061;55.714;37.794;2024-02-04T08:15:00;2.92;;;0.98;;
81651;SDS011;71061;55.714;37.794;2024-02-04T08:17:26;2.60;;;0.75;;
81651;SDS011;71061;55.714;37.794;2024-02-04T08:19:54;2.17;;;0.95;;
81651;SDS011;71061;55.714;37.794;2024-02-04T08:22:20;2.72;;;1.02;;
81651;SDS011;71061;55.714;37.794;2024-02-04T08:24:45;3.55;;;0.80;;
81651;SDS011;71061;55.714;37.794;2024-02-04T08:27:12;4.07;;;1.05;;
81651;SDS011;71061;55.714;37.794;2024-02-04T08:29:41;1.98;;;0.75;;
81651;SDS011;71061;55.714;37.794;2024-02-04T08:32:08;2.55;;;0.80;;
81651;SDS011;71061;55.714;37.794;2024-02-04T08:34:33;2.58;;;1.10;;
81651;SDS011;71061;55.714;37.794;2024-02-04T08:36:59;3.38;;;0.95;;
81651;SDS011;71061;55.714;37.794;2024-02-04T08:39:25;1.83;;;0.90;;
81651;SDS011;71061;55.714;37.794;2024-02-04T08:41:52;1.50;;;0.40;;
81651;SDS011;71061;55.714;37.794;2024-02-04T08:44:17;3.15;;;1.27;;
81651;SDS011;71061;55.714;37.794;2024-02-04T08:46:43;2.42;;;1.58;;
81651;SDS011;71061;55.714;37.794;2024-02-04T08:49:09;2.42;;;0.70;;
81651;SDS011;71061;55.714;37.794;2024-02-04T08:51:34;3.30;;;0.90;;
81651;SDS011;71061;55.714;37.794;2024-02-04T08:54:00;3.28;;;1.70;;
81651;SDS011;71061;55.714;37.794;2024-02-04T08:56:26;2.90;;;1.40;;
81651;SDS011;71061;55.714;37.794;2024-02-04T08:58:51;1.67;;;0.30;;
81651;SDS011;71061;55.714;37.794;2024-02-04T09:01:17;2.80;;;0.95;;
81651;SDS011;71061;55.714;37.794;2024-02-04T09:03:44;3.33;;;1.02;;
81651;SDS011;71061;55.714;37.794;2024-02-04T09:06:10;2.78;;;0.95;;
81651;SDS011;71061;55.714;37.794;2024-02-04T09:08:36;4.13;;;1.77;;
81651;SDS011;71061;55.714;37.794;2024-02-04T09:11:01;2.85;;;0.80;;
81651;SDS011;71061;55.714;37.794;2024-02-04T09:13:27;2.08;;;0.93;;
81651;SDS011;71061;55.714;37.794;2024-02-04T09:15:53;4.40;;;1.60;;
81651;SDS011;71061;55.714;37.794;2024-02-04T09:18:19;5.38;;;1.65;;
81651;SDS011;71061;55.714;37.794;2024-02-04T09:20:45;5.03;;;1.67;;
81651;SDS011;71061;55.714;37.794;2024-02-04T09:23:11;4.53;;;0.80;;
81651;SDS011;71061;55.714;37.794;2024-02-04T09:25:37;5.28;;;1.40;;
81651;SDS011;71061;55.714;37.794;2024-02-04T09:28:03;4.53;;;2.92;;
81651;SDS011;71061;55.714;37.794;2024-02-04T09:30:29;4.13;;;1.23;;
81651;SDS011;71061;55.714;37.794;2024-02-04T09:32:55;4.32;;;1.30;;
81651;SDS011;71061;55.714;37.794;2024-02-04T09:35:21;5.72;;;1.35;;
81651;SDS011;71061;55.714;37.794;2024-02-04T09:37:47;7.20;;;2.05;;
81651;SDS011;71061;55.714;37.794;2024-02-04T09:40:13;7.35;;;1.67;;
81651;SDS011;71061;55.714;37.794;2024-02-04T09:42:39;4.43;;;2.05;;
81651;SDS011;71061;55.714;37.794;2024-02-04T09:45:05;7.03;;;2.35;;
81651;SDS011;71061;55.714;37.794;2024-02-04T09:47:32;7.30;;;2.13;;
81651;SDS011;71061;55.714;37.794;2024-02-04T09:50:00;4.93;;;1.02;;
81651;SDS011;71061;55.714;37.794;2024-02-04T09:52:28;6.82;;;2.13;;
81651;SDS011;71061;55.714;37.794;2024-02-04T09:54:57;5.38;;;2.17;;
81651;SDS011;71061;55.714;37.794;2024-02-04T09:57:25;3.47;;;1.23;;
81651;SDS011;71061;55.714;37.794;2024-02-04T09:59:51;4.75;;;1.50;;
81651;SDS011;71061;55.714;37.794;2024-02-04T10:02:17;4.13;;;1.80;;
81651;SDS011;71061;55.714;37.794;2024-02-04T10:04:43;7.22;;;1.55;;
81651;SDS011;71061;55.714;37.794;2024-02-04T10:07:09;4.43;;;1.58;;
81651;SDS011;71061;55.714;37.794;2024-02-04T10:09:35;7.47;;;1.55;;
81651;SDS011;71061;55.714;37.794;2024-02-04T10:12:01;6.15;;;1.65;;
81651;SDS011;71061;55.714;37.794;2024-02-04T10:14:27;4.75;;;1.35;;
81651;SDS011;71061;55.714;37.794;2024-02-04T10:16:52;7.78;;;1.58;;
81651;SDS011;71061;55.714;37.794;2024-02-04T10:19:18;6.20;;;2.33;;
81651;SDS011;71061;55.714;37.794;2024-02-04T10:21:44;3.45;;;1.25;;
81651;SDS011;71061;55.714;37.794;2024-02-04T10:24:10;4.65;;;1.42;;
81651;SDS011;71061;55.714;37.794;2024-02-04T10:26:36;5.63;;;1.75;;
81651;SDS011;71061;55.714;37.794;2024-02-04T10:29:03;5.82;;;2.85;;
81651;SDS011;71061;55.714;37.794;2024-02-04T10:31:29;8.18;;;1.73;;
81651;SDS011;71061;55.714;37.794;2024-02-04T10:33:55;7.05;;;2.42;;
81651;SDS011;71061;55.714;37.794;2024-02-04T10:36:21;6.07;;;2.08;;
81651;SDS011;71061;55.714;37.794;2024-02-04T10:38:47;5.25;;;1.48;;
81651;SDS011;71061;55.714;37.794;2024-02-04T10:41:15;4.78;;;1.30;;
81651;SDS011;71061;55.714;37.794;2024-02-04T10:43:42;8.15;;;2.60;;
81651;SDS011;71061;55.714;37.794;2024-02-04T10:46:09;5.32;;;0.85;;
81651;SDS011;71061;55.714;37.794;2024-02-04T10:48:38;6.50;;;1.35;;
81651;SDS011;71061;55.714;37.794;2024-02-04T10:51:13;5.90;;;0.98;;
81651;SDS011;71061;55.714;37.794;2024-02-04T10:53:41;5.75;;;1.77;;
81651;SDS011;71061;55.714;37.794;2024-02-04T10:56:10;6.13;;;1.73;;
81651;SDS011;71061;55.714;37.794;2024-02-04T11:01:04;7.45;;;1.85;;
81651;SDS011;71061;55.714;37.794;2024-02-04T11:03:31;5.93;;;2.17;;
81651;SDS011;71061;55.714;37.794;2024-02-04T11:05:58;5.05;;;1.65;;
81651;SDS011;71061;55.714;37.794;2024-02-04T11:08:24;6.78;;;2.03;;
81651;SDS011;71061;55.714;37.794;2024-02-04T11:10:50;5.70;;;1.92;;
81651;SDS011;71061;55.714;37.794;2024-02-04T11:13:18;7.82;;;1.50;;
81651;SDS011;71061;55.714;37.794;2024-02-04T11:15:46;7.40;;;1.60;;
81651;SDS011;71061;55.714;37.794;2024-02-04T11:18:16;7.45;;;1.63;;
81651;SDS011;71061;55.714;37.794;2024-02-04T11:23:43;4.68;;;0.50;;
81651;SDS011;71061;55.714;37.794;2024-02-04T11:26:26;6.57;;;1.17;;
81651;SDS011;71061;55.714;37.794;2024-02-04T11:28:52;4.43;;;1.52;;
81651;SDS011;71061;55.714;37.794;2024-02-04T11:31:17;4.00;;;0.60;;
81651;SDS011;71061;55.714;37.794;2024-02-04T11:33:44;6.30;;;1.00;;
81651;SDS011;71061;55.714;37.794;2024-02-04T11:36:14;5.32;;;1.15;;
81651;SDS011;71061;55.714;37.794;2024-02-04T11:38:40;3.83;;;0.90;;
81651;SDS011;71061;55.714;37.794;2024-02-04T11:41:06;2.88;;;0.55;;
81651;SDS011;71061;55.714;37.794;2024-02-04T11:43:33;5.45;;;0.88;;
81651;SDS011;71061;55.714;37.794;2024-02-04T11:46:02;5.90;;;0.90;;
81651;SDS011;71061;55.714;37.794;2024-02-04T11:48:30;7.90;;;1.35;;
81651;SDS011;71061;55.714;37.794;2024-02-04T11:50:57;4.20;;;0.82;;
81651;SDS011;71061;55.714;37.794;2024-02-04T11:53:24;8.75;;;0.93;;
81651;SDS011;71061;55.714;37.794;2024-02-04T11:55:54;6.75;;;1.02;;
81651;SDS011;71061;55.714;37.794;2024-02-04T11:58:20;4.45;;;1.38;;
81651;SDS011;71061;55.714;37.794;2024-02-04T12:00:45;5.57;;;0.65;;
81651;SDS011;71061;55.714;37.794;2024-02-04T12:03:12;4.35;;;0.60;;
81651;SDS011;71061;55.714;37.794;2024-02-04T12:05:38;3.53;;;0.50;;
81651;SDS011;71061;55.714;37.794;2024-02-04T12:08:05;4.85;;;0.65;;
81651;SDS011;71061;55.714;37.794;2024-02-04T12:10:33;4.82;;;0.50;;
81651;SDS011;71061;55.714;37.794;2024-02-04T12:13:02;4.05;;;0.82;;
81651;SDS011;71061;55.714;37.794;2024-02-04T12:15:28;3.92;;;0.88;;
81651;SDS011;71061;55.714;37.794;2024-02-04T12:17:55;5.78;;;0.82;;
81651;SDS011;71061;55.714;37.794;2024-02-04T12:20:30;3.90;;;0.60;;
81651;SDS011;71061;55.714;37.794;2024-02-04T12:22:56;4.82;;;0.70;;
81651;SDS011;71061;55.714;37.794;2024-02-04T12:25:22;7.20;;;0.90;;
81651;SDS011;71061;55.714;37.794;2024-02-04T12:27:52;3.25;;;0.82;;
81651;SDS011;71061;55.714;37.794;2024-02-04T12:30:17;3.08;;;0.60;;
81651;SDS011;71061;55.714;37.794;2024-02-04T12:32:43;3.55;;;0.75;;
81651;SDS011;71061;55.714;37.794;2024-02-04T12:35:16;3.50;;;0.40;;
81651;SDS011;71061;55.714;37.794;2024-02-04T12:37:52;3.58;;;0.75;;
81651;SDS011;71061;55.714;37.794;2024-02-04T12:40:21;5.72;;;0.60;;
81651;SDS011;71061;55.714;37.794;2024-02-04T12:43:04;3.50;;;0.52;;
81651;SDS011;71061;55.714;37.794;2024-02-04T12:45:30;3.50;;;0.73;;
81651;SDS011;71061;55.714;37.794;2024-02-04T12:47:56;3.90;;;0.50;;
81651;SDS011;71061;55.714;37.794;2024-02-04T12:50:23;3.58;;;0.40;;
81651;SDS011;71061;55.714;37.794;2024-02-04T12:53:03;3.70;;;0.68;;
81651;SDS011;71061;55.714;37.794;2024-02-04T12:55:32;4.60;;;0.73;;
81651;SDS011;71061;55.714;37.794;2024-02-04T12:58:02;2.60;;;0.43;;
81651;SDS011;71061;55.714;37.794;2024-02-04T13:00:40;6.07;;;0.82;;
81651;SDS011;71061;55.714;37.794;2024-02-04T13:03:07;4.10;;;0.82;;
81651;SDS011;71061;55.714;37.794;2024-02-04T13:05:33;3.75;;;1.23;;
81651;SDS011;71061;55.714;37.794;2024-02-04T13:08:00;9.30;;;3.88;;
81651;SDS011;71061;55.714;37.794;2024-02-04T13:10:28;9.55;;;1.55;;
81651;SDS011;71061;55.714;37.794;2024-02-04T13:12:57;6.70;;;1.10;;
81651;SDS011;71061;55.714;37.794;2024-02-04T13:15:40;3.03;;;0.65;;
81651;SDS011;71061;55.714;37.794;2024-02-04T13:18:06;4.28;;;0.43;;
81651;SDS011;71061;55.714;37.794;2024-02-04T13:20:33;5.85;;;1.38;;
81651;SDS011;71061;55.714;37.794;2024-02-04T13:22:58;2.92;;;0.45;;
81651;SDS011;71061;55.714;37.794;2024-02-04T13:25:26;4.90;;;0.43;;
81651;SDS011;71061;55.714;37.794;2024-02-04T13:27:52;3.30;;;0.60;;
81651;SDS011;71061;55.714;37.794;2024-02-04T13:30:18;2.55;;;0.40;;
81651;SDS011;71061;55.714;37.794;2024-02-04T13:32:45;2.67;;;0.28;;
81651;SDS011;71061;55.714;37.794;2024-02-04T13:35:11;4.10;;;0.50;;
81651;SDS011;71061;55.714;37.794;2024-02-04T13:37:39;4.05;;;0.60;;
81651;SDS011;71061;55.714;37.794;2024-02-04T13:40:05;4.15;;;0.52;;
81651;SDS011;71061;55.714;37.794;2024-02-04T13:42:34;3.63;;;0.55;;
81651;SDS011;71061;55.714;37.794;2024-02-04T13:45:01;5.15;;;0.80;;
81651;SDS011;71061;55.714;37.794;2024-02-04T13:47:31;5.20;;;1.20;;
81651;SDS011;71061;55.714;37.794;2024-02-04T13:49:57;3.55;;;0.77;;
81651;SDS011;71061;55.714;37.794;2024-02-04T13:52:23;4.13;;;0.90;;
81651;SDS011;71061;55.714;37.794;2024-02-04T13:54:48;4.93;;;0.70;;
81651;SDS011;71061;55.714;37.794;2024-02-04T13:57:14;3.95;;;0.73;;
81651;SDS011;71061;55.714;37.794;2024-02-04T13:59:41;4.90;;;0.98;;
81651;SDS011;71061;55.714;37.794;2024-02-04T14:02:07;2.92;;;0.70;;
81651;SDS011;71061;55.714;37.794;2024-02-04T14:04:34;4.85;;;0.52;;
81651;SDS011;71061;55.714;37.794;2024-02-04T14:07:01;3.50;;;0.57;;
81651;SDS011;71061;55.714;37.794;2024-02-04T14:09:27;6.10;;;0.63;;
81651;SDS011;71061;55.714;37.794;2024-02-04T14:11:53;4.15;;;0.75;;
81651;SDS011;71061;55.714;37.794;2024-02-04T14:14:20;5.47;;;1.25;;
81651;SDS011;71061;55.714;37.794;2024-02-04T14:16:47;3.00;;;0.70;;
81651;SDS011;71061;55.714;37.794;2024-02-04T14:19:13;5.00;;;0.43;;
81651;SDS011;71061;55.714;37.794;2024-02-04T14:21:39;2.35;;;0.55;;
81651;SDS011;71061;55.714;37.794;2024-02-04T14:24:06;5.55;;;1.83;;
81651;SDS011;71061;55.714;37.794;2024-02-04T14:26:32;5.60;;;1.08;;
81651;SDS011;71061;55.714;37.794;2024-02-04T14:28:58;4.38;;;0.80;;
81651;SDS011;71061;55.714;37.794;2024-02-04T14:31:24;4.72;;;0.70;;
81651;SDS011;71061;55.714;37.794;2024-02-04T14:33:50;4.80;;;0.55;;
81651;SDS011;71061;55.714;37.794;2024-02-04T14:36:16;2.72;;;0.60;;
81651;SDS011;71061;55.714;37.794;2024-02-04T14:38:42;6.80;;;1.17;;
81651;SDS011;71061;55.714;37.794;2024-02-04T14:41:08;2.90;;;0.63;;